Time;durP1;ratioP1;P1;durP2;ratioP2;P2;SDS_P1;SDS_P2;PMS_P1;PMS_P2;Temp;Humidity;BMP_temperature;BMP_pressure;BME280_temperature;BME280_humidity;BME280_pressure;Samples;Min_cycle;Max_cycle;Signal;HPM_P1;HPM_P2
2024/01/17 00:00:25;;;;;;;0.85;0.85;;;;;;;-7.46;79.04;97012.56;5137125;27;20050;-78
2024/01/17 00:02:52;;;;;;;0.80;0.80;;;;;;;-7.55;79.40;96993.47;5155864;27;20043;-78
2024/01/17 00:05:19;;;;;;;1.20;1.15;;;;;;;-7.55;79.56;97003.94;5156016;27;20046;-79
2024/01/17 00:07:46;;;;;;;0.80;0.80;;;;;;;-7.56;79.99;97010.19;5137649;27;20400;-77
2024/01/17 00:10:14;;;;;;;1.05;1.05;;;;;;;-7.57;80.29;97026.06;5120073;27;20427;-78
2024/01/17 00:12:44;;;;;;;0.90;0.90;;;;;;;-7.60;80.55;97019.38;5137599;27;20520;-78
2024/01/17 00:15:12;;;;;;;0.90;0.90;;;;;;;-7.60;80.44;97045.59;5155433;27;20050;-78
2024/01/17 00:17:40;;;;;;;0.85;0.85;;;;;;;-7.64;79.69;97028.63;5155599;27;20057;-78
2024/01/17 00:20:08;;;;;;;0.90;0.90;;;;;;;-7.71;79.37;97028.50;5136869;27;20054;-78
2024/01/17 00:22:35;;;;;;;1.00;1.00;;;;;;;-7.67;79.28;97024.53;5155257;27;20050;-78
2024/01/17 00:25:03;;;;;;;0.85;0.85;;;;;;;-7.72;78.83;97029.50;5136930;27;20047;-77
2024/01/17 00:27:32;;;;;;;1.30;1.20;;;;;;;-7.77;78.68;97038.84;5137247;27;20042;-78
2024/01/17 00:30:00;;;;;;;1.15;1.13;;;;;;;-7.80;78.55;97028.75;5155168;27;20082;-77
2024/01/17 00:32:32;;;;;;;0.90;0.90;;;;;;;-7.89;79.01;97041.91;5155063;27;20051;-78
2024/01/17 00:34:59;;;;;;;1.00;1.00;;;;;;;-7.94;79.56;97052.09;5136222;27;20388;-77
2024/01/17 00:37:26;;;;;;;0.80;0.80;;;;;;;-8.03;80.11;97040.03;5155925;27;20134;-77
2024/01/17 00:39:54;;;;;;;0.90;0.90;;;;;;;-8.10;80.47;97049.59;5155202;27;20107;-78
2024/01/17 00:42:21;;;;;;;1.00;1.00;;;;;;;-8.08;80.80;97058.91;5137004;27;20388;-78
2024/01/17 00:44:48;;;;;;;1.00;1.00;;;;;;;-8.11;80.36;97071.53;5142898;27;20043;-78
2024/01/17 00:47:15;;;;;;;0.90;0.90;;;;;;;-8.15;79.44;97059.75;5134129;27;20051;-77
2024/01/17 00:49:42;;;;;;;1.15;1.15;;;;;;;-8.20;78.92;97056.84;5133892;27;20055;-78
2024/01/17 00:52:10;;;;;;;0.98;0.98;;;;;;;-8.23;78.42;97059.81;5134075;27;20419;-76
2024/01/17 00:54:38;;;;;;;1.02;1.02;;;;;;;-8.21;78.74;97073.56;5133966;27;20047;-77
2024/01/17 00:57:05;;;;;;;1.00;1.00;;;;;;;-8.29;79.46;97077.84;5133925;27;20130;-78
2024/01/17 00:59:34;;;;;;;1.40;1.30;;;;;;;-8.34;79.53;97079.34;5133756;27;20535;-78
2024/01/17 01:02:02;;;;;;;1.38;1.27;;;;;;;-8.43;79.42;97086.47;5133895;27;20074;-78
2024/01/17 01:04:29;;;;;;;1.00;1.00;;;;;;;-8.50;79.14;97082.91;5113510;28;20047;-78
2024/01/17 01:06:57;;;;;;;1.10;1.10;;;;;;;-8.60;79.33;97093.59;5095748;28;20052;-78
2024/01/17 01:09:24;;;;;;;1.02;1.02;;;;;;;-8.67;79.50;97097.84;5113364;28;20047;-78
2024/01/17 01:11:51;;;;;;;1.30;1.25;;;;;;;-8.74;79.80;97117.81;5094980;28;20082;-78
2024/01/17 01:14:19;;;;;;;1.10;1.10;;;;;;;-8.82;80.44;97102.16;5113028;28;20050;-78
2024/01/17 01:16:46;;;;;;;1.30;1.20;;;;;;;-8.89;80.73;97112.47;5095193;28;20130;-77
2024/01/17 01:19:14;;;;;;;1.15;1.15;;;;;;;-8.91;81.16;97114.47;5113108;28;20412;-78
2024/01/17 01:21:42;;;;;;;1.02;1.02;;;;;;;-8.93;81.39;97111.19;5080034;28;20078;-77
2024/01/17 01:24:10;;;;;;;1.23;1.20;;;;;;;-8.92;81.61;97117.22;5092521;28;20110;-79
2024/01/17 01:26:38;;;;;;;1.08;1.08;;;;;;;-8.97;81.85;97112.50;5074629;28;20501;-78
2024/01/17 01:29:08;;;;;;;1.02;1.02;;;;;;;-8.98;82.45;97118.72;5074993;28;20055;-77
2024/01/17 01:31:35;;;;;;;1.10;1.10;;;;;;;-9.06;82.43;97126.56;5041211;28;20040;-78
2024/01/17 01:34:02;;;;;;;1.23;1.20;;;;;;;-9.06;82.60;97127.41;5057884;28;20055;-78
2024/01/17 01:36:29;;;;;;;1.10;1.10;;;;;;;-9.13;83.00;97123.00;5075060;28;20044;-77
2024/01/17 01:39:00;;;;;;;1.35;1.25;;;;;;;-9.21;83.15;97124.66;5058137;28;20048;-77
2024/01/17 01:41:27;;;;;;;1.10;1.10;;;;;;;-9.25;83.56;97139.00;5107242;28;20094;-78
2024/01/17 01:43:54;;;;;;;1.10;1.10;;;;;;;-9.27;84.11;97135.75;5112610;28;20043;-79
2024/01/17 01:46:27;;;;;;;1.00;1.00;;;;;;;-9.20;84.26;97146.38;5113809;28;20043;-77
2024/01/17 01:48:54;;;;;;;1.05;1.05;;;;;;;-9.20;84.19;97136.72;5098755;28;20039;-78
2024/01/17 01:51:22;;;;;;;1.10;1.10;;;;;;;-9.13;84.30;97146.53;5057363;28;20053;-77
2024/01/17 01:53:53;;;;;;;1.50;1.40;;;;;;;-9.13;84.37;97138.69;5024690;28;20063;-78
2024/01/17 01:56:23;;;;;;;1.00;1.00;;;;;;;-9.11;84.65;97139.31;5041078;28;20115;-78
2024/01/17 01:58:51;;;;;;;1.10;1.10;;;;;;;-9.16;84.98;97143.25;5057176;28;20044;-78
2024/01/17 02:01:18;;;;;;;1.48;1.38;;;;;;;-9.22;85.26;97146.50;5023961;28;20048;-78
2024/01/17 02:03:47;;;;;;;1.35;1.25;;;;;;;-9.28;85.86;97138.53;5040483;28;20045;-77
2024/01/17 02:06:14;;;;;;;1.33;1.23;;;;;;;-9.25;86.20;97152.06;5073707;28;20183;-77
2024/01/17 02:08:42;;;;;;;0.88;0.88;;;;;;;-9.25;86.32;97149.47;5073772;28;20055;-78
2024/01/17 02:11:09;;;;;;;1.20;1.20;;;;;;;-9.28;86.84;97160.25;5040511;28;20147;-77
2024/01/17 02:13:36;;;;;;;1.10;1.10;;;;;;;-9.33;87.31;97165.16;5073635;28;20099;-78
2024/01/17 02:16:06;;;;;;;1.02;1.02;;;;;;;-9.33;87.57;97167.78;5040645;28;20140;-78
2024/01/17 02:18:35;;;;;;;1.10;1.10;;;;;;;-9.31;87.50;97178.88;5057638;28;20525;-78
2024/01/17 02:21:03;;;;;;;1.17;1.17;;;;;;;-9.38;87.43;97168.25;5082466;28;20056;-77
2024/01/17 02:23:31;;;;;;;1.05;1.05;;;;;;;-9.32;87.29;97189.47;5079861;28;20105;-78
2024/01/17 02:25:58;;;;;;;1.13;1.13;;;;;;;-9.34;87.21;97191.44;5080955;28;20071;-78
2024/01/17 02:28:29;;;;;;;1.10;1.10;;;;;;;-9.36;87.45;97188.19;5115911;28;20052;-77
2024/01/17 02:30:58;;;;;;;1.50;1.40;;;;;;;-9.37;87.49;97200.41;5116283;28;20047;-78
2024/01/17 02:33:25;;;;;;;1.40;1.30;;;;;;;-9.36;87.28;97198.66;5097917;28;20063;-78
2024/01/17 02:35:53;;;;;;;1.40;1.30;;;;;;;-9.39;87.29;97205.00;5116009;28;20109;-78
2024/01/17 02:38:20;;;;;;;1.23;1.17;;;;;;;-9.43;87.41;97204.50;5136498;27;20055;-78
2024/01/17 02:40:47;;;;;;;1.25;1.20;;;;;;;-9.48;87.74;97208.59;5136410;27;20058;-79
2024/01/17 02:43:18;;;;;;;1.40;1.30;;;;;;;-9.60;88.22;97206.28;5136450;27;20047;-78
2024/01/17 02:45:48;;;;;;;1.27;1.23;;;;;;;-9.61;88.91;97207.25;5136472;27;20594;-78
2024/01/17 02:48:15;;;;;;;1.40;1.30;;;;;;;-9.64;89.71;97222.44;5127697;27;20046;-77
2024/01/17 02:50:43;;;;;;;1.10;1.10;;;;;;;-9.63;90.06;97224.88;5136359;27;20047;-80
2024/01/17 02:53:10;;;;;;;1.30;1.20;;;;;;;-9.62;90.33;97236.97;5136156;27;20557;-77
2024/01/17 02:55:37;;;;;;;1.27;1.20;;;;;;;-9.61;90.82;97236.00;5100655;27;20567;-78
2024/01/17 02:58:05;;;;;;;1.10;1.10;;;;;;;-9.63;91.13;97237.94;5135085;27;20136;-78
2024/01/17 03:00:36;;;;;;;1.10;1.10;;;;;;;-9.63;91.12;97237.13;5092838;28;20059;-78
2024/01/17 03:03:04;;;;;;;1.40;1.30;;;;;;;-9.60;91.40;97250.66;5075945;28;20060;-78
2024/01/17 03:05:31;;;;;;;1.40;1.30;;;;;;;-9.58;91.36;97242.69;5075916;28;20564;-78
2024/01/17 03:07:58;;;;;;;1.40;1.30;;;;;;;-9.62;90.45;97268.31;5093018;28;20047;-79
2024/01/17 03:10:32;;;;;;;1.17;1.15;;;;;;;-9.72;88.56;97267.63;5092887;28;20048;-78
2024/01/17 03:12:59;;;;;;;1.50;1.40;;;;;;;-9.83;86.94;97273.13;5059620;28;20052;-78
2024/01/17 03:15:27;;;;;;;1.00;1.00;;;;;;;-9.98;85.00;97277.31;5075771;28;20051;-78
2024/01/17 03:17:58;;;;;;;1.40;1.30;;;;;;;-10.08;83.66;97288.69;5058670;28;20048;-78
2024/01/17 03:20:37;;;;;;;1.40;1.30;;;;;;;-10.19;82.45;97281.16;5060917;28;20121;-78
2024/01/17 03:23:05;;;;;;;1.42;1.33;;;;;;;-10.25;82.28;97297.44;5059058;28;20053;-78
2024/01/17 03:25:32;;;;;;;1.67;1.58;;;;;;;-10.26;81.73;97306.22;5075537;28;20052;-79
2024/01/17 03:28:00;;;;;;;1.50;1.40;;;;;;;-10.30;81.41;97299.72;5092179;28;20044;-77
2024/01/17 03:30:28;;;;;;;1.60;1.50;;;;;;;-10.32;80.97;97317.31;5092282;28;20047;-78
2024/01/17 03:32:57;;;;;;;1.20;1.20;;;;;;;-10.38;80.37;97310.09;5069170;28;20044;-78
2024/01/17 03:35:25;;;;;;;1.48;1.38;;;;;;;-10.38;80.22;97303.13;5085201;28;20461;-78
2024/01/17 03:37:52;;;;;;;1.50;1.40;;;;;;;-10.31;79.70;97317.16;5101309;28;20143;-77
2024/01/17 03:40:19;;;;;;;1.60;1.50;;;;;;;-10.35;79.29;97325.47;5096633;28;20048;-78
2024/01/17 03:42:46;;;;;;;1.40;1.30;;;;;;;-10.36;79.37;97329.03;5114576;28;20047;-77
2024/01/17 03:45:14;;;;;;;1.30;1.23;;;;;;;-10.41;79.46;97336.50;5096168;28;20066;-78
2024/01/17 03:47:42;;;;;;;1.60;1.50;;;;;;;-10.40;79.45;97338.97;5114483;28;20054;-79
2024/01/17 03:50:09;;;;;;;1.38;1.27;;;;;;;-10.37;79.78;97345.66;5114489;28;20058;-78
2024/01/17 03:52:37;;;;;;;1.20;1.20;;;;;;;-10.40;79.39;97361.63;5107581;28;20368;-78
2024/01/17 03:55:04;;;;;;;1.23;1.20;;;;;;;-10.39;79.14;97378.91;5114549;28;20043;-79
2024/01/17 03:57:32;;;;;;;1.20;1.20;;;;;;;-10.45;78.74;97379.50;5097310;28;20408;-79
2024/01/17 03:59:59;;;;;;;1.25;1.20;;;;;;;-10.52;78.87;97376.69;5114325;28;20043;-78
2024/01/17 04:02:27;;;;;;;1.42;1.33;;;;;;;-10.59;78.59;97373.84;5062484;28;20139;-78
2024/01/17 04:04:54;;;;;;;1.40;1.30;;;;;;;-10.65;78.09;97384.09;5079015;28;20165;-79
2024/01/17 04:07:22;;;;;;;1.42;1.33;;;;;;;-10.73;78.20;97382.22;5113961;28;20120;-78
2024/01/17 04:09:50;;;;;;;1.25;1.20;;;;;;;-10.73;78.10;97384.84;5095764;28;20039;-78
2024/01/17 04:12:20;;;;;;;1.60;1.50;;;;;;;-10.78;78.28;97374.03;5078985;28;20039;-79
2024/01/17 04:14:52;;;;;;;1.42;1.33;;;;;;;-10.81;78.32;97396.00;5063161;28;20062;-79
2024/01/17 04:17:19;;;;;;;1.63;1.52;;;;;;;-10.84;78.57;97398.09;5074337;28;20062;-78
2024/01/17 04:19:48;;;;;;;1.48;1.38;;;;;;;-10.84;79.49;97405.91;5074362;28;20390;-78
2024/01/17 04:22:15;;;;;;;1.50;1.40;;;;;;;-10.87;79.17;97408.81;5054774;28;20524;-79
2024/01/17 04:24:43;;;;;;;1.20;1.20;;;;;;;-10.93;79.08;97421.47;5054089;28;20549;-78
2024/01/17 04:27:13;;;;;;;1.50;1.40;;;;;;;-10.95;79.26;97456.47;5038196;28;20064;-79
2024/01/17 04:29:41;;;;;;;1.70;1.60;;;;;;;-11.06;79.38;97428.84;5053627;28;20048;-79
2024/01/17 04:35:10;;;;;;;1.60;1.50;;;;;;;-11.09;79.10;97451.72;5024421;28;20181;-78
2024/01/17 04:37:39;;;;;;;1.60;1.50;;;;;;;-11.12;79.52;97450.25;5037593;28;20056;-78
2024/01/17 04:40:08;;;;;;;1.52;1.42;;;;;;;-11.19;79.19;97450.03;5053282;28;20564;-79
2024/01/17 04:42:50;;;;;;;1.60;1.50;;;;;;;-11.23;79.22;97466.09;5021900;28;20078;-78
2024/01/17 04:45:34;;;;;;;1.60;1.50;;;;;;;-11.37;79.43;97468.22;5037232;28;20052;-79
2024/01/17 04:48:07;;;;;;;1.70;1.60;;;;;;;-11.47;79.29;97466.59;5030048;28;20505;-79
2024/01/17 04:50:35;;;;;;;1.70;1.60;;;;;;;-11.51;79.58;97473.06;5074476;28;20044;-78
2024/01/17 04:53:02;;;;;;;1.60;1.50;;;;;;;-11.54;79.17;97483.75;5092566;28;20059;-79
2024/01/17 04:55:29;;;;;;;1.52;1.42;;;;;;;-11.58;79.56;97481.44;5074727;28;20055;-79
2024/01/17 04:57:57;;;;;;;1.45;1.35;;;;;;;-11.57;79.69;97483.09;5074276;28;20504;-79
2024/01/17 05:00:25;;;;;;;1.85;1.75;;;;;;;-11.61;80.05;97501.75;5093092;28;20063;-78
2024/01/17 05:02:52;;;;;;;1.38;1.27;;;;;;;-11.65;80.47;97508.19;5075008;28;20054;-78
2024/01/17 05:05:19;;;;;;;1.52;1.42;;;;;;;-11.67;81.07;97510.94;5092443;28;20147;-80
2024/01/17 05:07:46;;;;;;;1.67;1.58;;;;;;;-11.69;81.19;97538.06;5090570;28;20500;-77
2024/01/17 05:10:14;;;;;;;1.98;1.88;;;;;;;-11.80;80.88;97529.47;5079610;28;20048;-79
2024/01/17 05:12:41;;;;;;;1.70;1.60;;;;;;;-11.87;80.91;97523.19;5101365;28;20090;-78
2024/01/17 05:15:08;;;;;;;1.92;1.83;;;;;;;-11.92;81.14;97548.81;4750641;28;10000352;-77
2024/01/17 05:17:36;;;;;;;1.60;1.50;;;;;;;-11.97;81.64;97547.56;5107789;28;20138;-79
2024/01/17 05:20:03;;;;;;;1.75;1.65;;;;;;;-11.98;81.32;97546.75;5108774;28;20055;-80
2024/01/17 05:22:39;;;;;;;1.70;1.60;;;;;;;-11.99;81.42;97562.53;5122748;27;20042;-79
2024/01/17 05:25:08;;;;;;;1.70;1.60;;;;;;;-12.07;81.56;97547.59;5082018;27;20039;-79
2024/01/17 05:27:35;;;;;;;1.52;1.42;;;;;;;-12.06;81.87;97560.44;5087816;28;20048;-79
2024/01/17 05:30:12;;;;;;;1.52;1.42;;;;;;;-12.05;81.71;97556.91;5049663;27;20137;-78
2024/01/17 05:32:45;;;;;;;1.65;1.55;;;;;;;-12.05;81.26;97553.47;5067827;27;20039;-79
2024/01/17 05:35:16;;;;;;;1.85;1.75;;;;;;;-12.09;81.14;97576.34;5059738;28;20047;-79
2024/01/17 05:37:51;;;;;;;1.65;1.55;;;;;;;-12.15;81.06;97565.66;5109424;28;20050;-78
2024/01/17 05:40:22;;;;;;;1.58;1.48;;;;;;;-12.17;80.84;97575.41;5110288;28;20120;-79
2024/01/17 05:42:53;;;;;;;1.83;1.73;;;;;;;-12.10;80.70;97579.91;5074829;28;20079;-78
2024/01/17 05:45:21;;;;;;;1.70;1.60;;;;;;;-12.12;80.68;97570.59;5090885;28;20504;-79
2024/01/17 05:47:49;;;;;;;1.50;1.40;;;;;;;-12.11;80.60;97585.25;5087239;28;20044;-78
2024/01/17 05:50:16;;;;;;;1.80;1.70;;;;;;;-12.19;79.85;97569.50;5113165;28;20070;-79
2024/01/17 05:52:50;;;;;;;1.80;1.70;;;;;;;-12.16;79.69;97584.84;5097679;28;20834;-80
2024/01/17 05:55:20;;;;;;;1.80;1.70;;;;;;;-12.12;79.39;97596.63;5085709;28;20043;-78
2024/01/17 05:57:50;;;;;;;2.10;1.90;;;;;;;-12.16;78.98;97590.84;5100813;28;20064;-79
2024/01/17 06:00:20;;;;;;;1.83;1.73;;;;;;;-12.13;78.63;97610.56;5078689;28;20047;-80
2024/01/17 06:02:49;;;;;;;1.70;1.60;;;;;;;-12.13;78.53;97606.16;5077096;28;20146;-79
2024/01/17 06:05:17;;;;;;;1.70;1.60;;;;;;;-12.14;78.36;97620.16;5070514;28;20926;-78
2024/01/17 06:07:45;;;;;;;2.00;1.90;;;;;;;-12.14;78.50;97617.53;5052609;28;20099;-79
2024/01/17 06:10:13;;;;;;;2.00;1.90;;;;;;;-12.13;78.11;97623.56;5047612;28;20448;-78
2024/01/17 06:12:42;;;;;;;1.70;1.60;;;;;;;-12.14;78.45;97634.94;5047996;28;20131;-79
2024/01/17 06:15:11;;;;;;;1.90;1.80;;;;;;;-12.12;78.78;97627.81;4996803;28;20084;-78
2024/01/17 06:17:39;;;;;;;1.60;1.50;;;;;;;-12.17;78.65;97645.63;4997432;28;20096;-78
2024/01/17 06:20:11;;;;;;;1.55;1.45;;;;;;;-12.19;78.29;97648.34;4986421;28;20046;-79
2024/01/17 06:22:47;;;;;;;1.67;1.58;;;;;;;-12.25;78.32;97648.91;4993936;28;20158;-77
2024/01/17 06:25:15;;;;;;;1.50;1.40;;;;;;;-12.23;78.77;97662.56;4984782;28;20042;-78
2024/01/17 06:27:42;;;;;;;1.83;1.73;;;;;;;-12.24;78.99;97656.53;4992001;28;20050;-78
2024/01/17 06:30:10;;;;;;;1.50;1.40;;;;;;;-12.30;78.58;97651.06;5003001;28;20092;-78
2024/01/17 06:32:47;;;;;;;1.70;1.60;;;;;;;-12.26;78.57;97663.66;4999882;28;20485;-77
2024/01/17 06:35:23;;;;;;;1.80;1.70;;;;;;;-12.30;78.61;97677.06;4981904;28;21094;-78
2024/01/17 06:37:52;;;;;;;1.80;1.70;;;;;;;-12.35;78.48;97661.88;4959754;28;20081;-79
2024/01/17 06:40:22;;;;;;;1.70;1.60;;;;;;;-12.36;78.44;97665.41;4926268;29;20066;-79
2024/01/17 06:42:49;;;;;;;1.95;1.85;;;;;;;-12.32;78.57;97674.59;4953789;29;20044;-78
2024/01/17 06:45:17;;;;;;;1.73;1.63;;;;;;;-12.29;78.38;97684.72;4959597;28;20099;-78
2024/01/17 06:47:47;;;;;;;1.88;1.77;;;;;;;-12.30;78.15;97683.09;4995639;28;20056;-78
2024/01/17 06:50:28;;;;;;;1.90;1.80;;;;;;;-12.28;77.89;97707.19;4966593;28;20046;-79
2024/01/17 06:52:56;;;;;;;1.70;1.60;;;;;;;-12.24;77.93;97695.56;4995673;28;20046;-78
2024/01/17 06:55:24;;;;;;;1.58;1.48;;;;;;;-12.23;78.06;97698.97;5012144;28;20046;-78
2024/01/17 06:57:51;;;;;;;1.90;1.80;;;;;;;-12.24;77.77;97697.34;4996621;28;20474;-79
2024/01/17 07:00:20;;;;;;;1.70;1.60;;;;;;;-12.19;77.95;97708.16;4996415;28;20064;-77
2024/01/17 07:02:47;;;;;;;1.77;1.67;;;;;;;-12.16;77.78;97704.47;4996421;28;20073;-78
2024/01/17 07:05:15;;;;;;;1.70;1.60;;;;;;;-12.14;77.44;97713.78;5012985;28;20054;-77
2024/01/17 07:07:48;;;;;;;1.92;1.83;;;;;;;-12.14;77.06;97707.75;5012715;28;20050;-78
2024/01/17 07:10:17;;;;;;;2.10;1.95;;;;;;;-12.10;77.14;97716.94;4996309;28;20046;-78
2024/01/17 07:12:46;;;;;;;1.83;1.73;;;;;;;-12.00;77.33;97730.78;4983857;28;20056;-79
2024/01/17 07:15:23;;;;;;;1.73;1.63;;;;;;;-12.03;76.58;97739.69;4944867;28;20059;-78
2024/01/17 07:17:52;;;;;;;1.80;1.70;;;;;;;-12.05;76.67;97733.81;4947527;28;20073;-78
2024/01/17 07:20:21;;;;;;;2.08;1.90;;;;;;;-12.10;76.38;97749.00;4996027;28;20108;-78
2024/01/17 07:22:48;;;;;;;1.80;1.70;;;;;;;-12.10;76.64;97748.16;4996036;28;20505;-79
2024/01/17 07:25:19;;;;;;;1.50;1.40;;;;;;;-12.05;76.93;97759.81;4992823;28;20529;-78
2024/01/17 07:28:19;;;;;;;1.60;1.50;;;;;;;-12.09;76.86;97762.81;4993193;28;20175;-78
2024/01/17 07:30:52;;;;;;;1.70;1.60;;;;;;;-12.10;76.63;97774.16;4963403;28;20073;-79
2024/01/17 07:33:36;;;;;;;1.77;1.67;;;;;;;-12.01;76.78;97774.19;4992768;28;20188;-78
2024/01/17 07:36:20;;;;;;;1.90;1.80;;;;;;;-11.99;76.18;97771.47;4975590;28;20086;-78
2024/01/17 07:38:53;;;;;;;2.30;2.10;;;;;;;-11.94;75.45;97778.88;4991475;28;20525;-78
2024/01/17 07:41:20;;;;;;;1.90;1.80;;;;;;;-11.94;74.85;97802.31;4975925;28;20046;-78
2024/01/17 07:43:51;;;;;;;1.95;1.85;;;;;;;-11.92;75.02;97795.16;4991835;28;20073;-78
2024/01/17 07:46:29;;;;;;;1.90;1.80;;;;;;;-12.03;75.06;97803.91;4978994;28;20054;-78
2024/01/17 07:48:56;;;;;;;1.80;1.70;;;;;;;-12.14;75.33;97810.03;4969894;28;20051;-78
2024/01/17 07:51:26;;;;;;;1.60;1.50;;;;;;;-12.27;75.64;97810.25;4957085;28;20061;-77
2024/01/17 07:53:56;;;;;;;1.67;1.58;;;;;;;-12.34;75.91;97839.50;4977036;28;20433;-78
2024/01/17 07:56:25;;;;;;;1.70;1.60;;;;;;;-12.33;76.19;97839.38;4999088;28;20498;-78
2024/01/17 07:58:56;;;;;;;1.90;1.80;;;;;;;-12.33;76.22;97854.13;5020810;28;20387;-76
2024/01/17 08:01:24;;;;;;;1.80;1.70;;;;;;;-12.32;76.54;97856.63;5020680;28;20073;-78
2024/01/17 08:03:51;;;;;;;1.80;1.70;;;;;;;-12.20;76.80;97857.38;5022081;28;20081;-78
2024/01/17 08:06:19;;;;;;;2.00;1.90;;;;;;;-12.18;75.89;97867.63;5023781;28;20048;-78
2024/01/17 08:08:48;;;;;;;1.80;1.70;;;;;;;-12.24;75.63;97864.59;5008938;28;20538;-78
2024/01/17 08:11:15;;;;;;;1.95;1.85;;;;;;;-12.26;75.88;97884.69;5018828;28;20044;-78
2024/01/17 08:13:42;;;;;;;1.98;1.88;;;;;;;-12.22;75.36;97893.09;5049696;28;20041;-78
2024/01/17 08:16:10;;;;;;;1.70;1.60;;;;;;;-12.25;75.16;97891.56;5053368;28;20040;-79
2024/01/17 08:18:39;;;;;;;1.63;1.52;;;;;;;-12.28;74.94;97893.59;5107585;27;20449;-79
2024/01/17 08:21:06;;;;;;;2.05;1.90;;;;;;;-12.31;74.95;97894.66;5100369;28;20150;-79
2024/01/17 08:23:34;;;;;;;1.63;1.52;;;;;;;-12.34;75.00;97907.94;5093084;28;20113;-79
2024/01/17 08:26:02;;;;;;;1.92;1.83;;;;;;;-12.45;75.20;97903.63;5042709;28;20070;-79
2024/01/17 08:28:35;;;;;;;1.77;1.67;;;;;;;-12.51;75.40;97906.72;5075908;28;20134;-78
2024/01/17 08:31:19;;;;;;;;;;;;;;;-12.49;75.46;97927.41;5047075;28;20059;-79
2024/01/17 08:33:54;;;;;;;1.98;1.88;;;;;;;-12.52;75.93;97925.06;5059185;28;20026;-79
2024/01/17 08:36:28;;;;;;;1.92;1.83;;;;;;;-12.51;75.69;97932.72;5113228;28;20342;-79
2024/01/17 08:38:57;;;;;;;1.65;1.55;;;;;;;-12.51;75.35;97950.09;5095765;28;20175;-79
2024/01/17 08:41:25;;;;;;;1.70;1.60;;;;;;;-12.40;75.55;97907.59;5095284;28;20051;-78
2024/01/17 08:43:52;;;;;;;2.03;1.92;;;;;;;-12.19;75.92;97931.03;5113427;28;20048;-79
2024/01/17 08:46:20;;;;;;;1.95;1.85;;;;;;;-11.99;75.54;97932.78;5078705;28;20058;-78
2024/01/17 08:48:49;;;;;;;1.83;1.73;;;;;;;-11.90;74.46;97939.81;5095743;28;20070;-78
2024/01/17 08:51:17;;;;;;;2.17;2.00;;;;;;;-11.81;74.14;97932.97;5078389;28;20051;-78
2024/01/17 08:53:47;;;;;;;1.70;1.60;;;;;;;-11.81;73.97;97944.19;5061573;28;20047;-79
2024/01/17 08:56:15;;;;;;;1.63;1.52;;;;;;;-11.76;74.14;97948.19;5112121;28;20043;-79
2024/01/17 08:58:42;;;;;;;1.63;1.52;;;;;;;-11.70;74.03;97963.28;5093546;27;20046;-79
2024/01/17 09:01:10;;;;;;;2.10;1.92;;;;;;;-11.71;73.70;97948.63;5154506;27;20039;-77
2024/01/17 09:03:39;;;;;;;1.80;1.70;;;;;;;-11.65;73.74;97966.31;5135750;27;20050;-77
2024/01/17 09:06:07;;;;;;;1.80;1.70;;;;;;;-11.60;73.43;97969.38;5135593;27;20064;-78
2024/01/17 09:08:34;;;;;;;1.45;1.35;;;;;;;-11.54;73.15;97968.00;5135963;27;20051;-79
2024/01/17 09:11:02;;;;;;;1.83;1.73;;;;;;;-11.52;72.70;97969.53;5142492;27;20053;-79
2024/01/17 09:13:37;;;;;;;1.80;1.70;;;;;;;-11.54;72.08;97971.47;5097904;27;20567;-79
2024/01/17 09:16:17;;;;;;;1.42;1.33;;;;;;;-11.61;72.26;97980.75;5099413;27;20047;-78
2024/01/17 09:18:46;;;;;;;1.80;1.70;;;;;;;-11.54;72.59;97981.88;5133058;27;20047;-79
2024/01/17 09:21:16;;;;;;;1.80;1.70;;;;;;;-11.53;72.38;97988.72;5086977;28;20082;-79
2024/01/17 09:23:43;;;;;;;1.70;1.60;;;;;;;-11.49;71.96;97986.66;5094582;28;20047;-78
2024/01/17 09:26:11;;;;;;;1.48;1.38;;;;;;;-11.41;72.05;98000.69;5060635;28;20048;-78
2024/01/17 09:28:39;;;;;;;1.65;1.55;;;;;;;-11.46;72.07;98000.28;5095074;28;20478;-77
2024/01/17 09:31:06;;;;;;;1.63;1.52;;;;;;;-11.46;72.10;98009.88;5112658;28;20051;-78
2024/01/17 09:33:35;;;;;;;1.65;1.55;;;;;;;-11.41;72.02;98010.31;5077326;28;20039;-79
2024/01/17 09:36:02;;;;;;;1.70;1.60;;;;;;;-11.53;72.29;98019.16;5095829;28;20052;-80
2024/01/17 09:38:30;;;;;;;1.73;1.63;;;;;;;-11.55;72.40;98014.06;5113721;28;20044;-78
2024/01/17 09:40:57;;;;;;;1.80;1.70;;;;;;;-11.47;72.34;98018.63;5113767;28;20089;-80
2024/01/17 09:43:24;;;;;;;1.60;1.50;;;;;;;-11.43;72.52;98025.22;5078067;28;20056;-79
2024/01/17 09:45:54;;;;;;;1.55;1.45;;;;;;;-11.45;72.64;98021.94;5079143;28;20089;-78
2024/01/17 09:48:29;;;;;;;1.50;1.40;;;;;;;-11.38;72.92;98020.47;5078668;28;20044;-78
2024/01/17 09:50:58;;;;;;;1.70;1.60;;;;;;;-11.36;73.30;98027.19;5077473;28;20062;-78
2024/01/17 09:53:28;;;;;;;1.60;1.50;;;;;;;-11.37;73.71;98040.31;5094265;28;20062;-78
2024/01/17 09:55:59;;;;;;;1.73;1.63;;;;;;;-11.46;74.22;98035.91;5112632;28;20519;-79
2024/01/17 09:58:32;;;;;;;1.80;1.70;;;;;;;-11.58;74.59;98032.56;5111983;28;20048;-78
2024/01/17 10:01:04;;;;;;;1.60;1.50;;;;;;;-11.51;75.22;98048.50;5112391;28;20408;-79
2024/01/17 10:03:34;;;;;;;1.50;1.40;;;;;;;-11.61;75.06;98059.66;5112395;28;20055;-79
2024/01/17 10:06:02;;;;;;;1.58;1.48;;;;;;;-11.76;75.04;98054.91;5112158;28;20052;-78
2024/01/17 10:08:32;;;;;;;1.65;1.55;;;;;;;-11.83;75.57;98071.03;5114848;28;20065;-78
2024/01/17 10:11:03;;;;;;;1.70;1.60;;;;;;;-11.74;75.89;98060.84;5116848;28;20085;-78
2024/01/17 10:13:31;;;;;;;1.70;1.60;;;;;;;-11.80;75.93;98055.19;5098085;28;20056;-79
2024/01/17 10:16:03;;;;;;;1.70;1.60;;;;;;;-11.76;76.16;98075.75;5116062;28;20043;-79
2024/01/17 10:18:35;;;;;;;1.80;1.70;;;;;;;-11.76;76.64;98076.56;5098247;28;20047;-79
2024/01/17 10:21:04;;;;;;;1.60;1.50;;;;;;;-11.68;76.61;98083.75;5115552;28;20405;-78
2024/01/17 10:23:31;;;;;;;1.70;1.60;;;;;;;-11.65;76.71;98076.50;5115787;28;20059;-79
2024/01/17 10:25:58;;;;;;;1.70;1.60;;;;;;;-11.65;77.29;98083.47;5080692;28;20049;-78
2024/01/17 10:28:26;;;;;;;1.42;1.33;;;;;;;-11.60;77.67;98092.53;5080700;28;20146;-79
2024/01/17 10:30:53;;;;;;;1.50;1.40;;;;;;;-11.71;76.80;98097.00;5117201;28;20052;-79
2024/01/17 10:33:21;;;;;;;1.63;1.52;;;;;;;-11.83;77.20;98097.06;5099718;28;20105;-79
2024/01/17 10:35:53;;;;;;;1.67;1.58;;;;;;;-11.89;77.41;98115.00;5050536;28;20522;-79
2024/01/17 10:38:23;;;;;;;1.60;1.50;;;;;;;-11.92;77.68;98110.88;5081285;28;20098;-79
2024/01/17 10:41:06;;;;;;;1.15;1.15;;;;;;;-11.88;77.84;98120.06;5064351;28;20055;-79
2024/01/17 10:43:53;;;;;;;1.70;1.60;;;;;;;-11.92;77.95;98128.22;5116081;28;20063;-78
2024/01/17 10:46:21;;;;;;;1.77;1.67;;;;;;;-11.99;78.48;98134.91;5116254;28;20101;-78
2024/01/17 10:48:49;;;;;;;1.90;1.80;;;;;;;-11.97;78.58;98120.81;5116338;28;20420;-79
2024/01/17 10:51:21;;;;;;;1.50;1.40;;;;;;;-11.90;78.82;98137.59;5115657;28;20526;-79
2024/01/17 10:53:58;;;;;;;1.67;1.58;;;;;;;-11.89;78.47;98141.84;5115808;28;20538;-78
2024/01/17 10:56:26;;;;;;;1.75;1.65;;;;;;;-11.83;78.36;98148.28;5115959;28;20134;-79
2024/01/17 10:58:55;;;;;;;1.67;1.58;;;;;;;-11.86;78.21;98133.75;5097708;28;20078;-79
2024/01/17 11:01:31;;;;;;;1.80;1.70;;;;;;;-11.88;77.78;98150.47;5097504;28;20101;-79
2024/01/17 11:04:22;;;;;;;1.80;1.70;;;;;;;-11.80;78.18;98148.88;5097575;28;20436;-78
2024/01/17 11:06:55;;;;;;;1.77;1.67;;;;;;;-11.73;78.48;98164.81;5097234;28;20071;-78
2024/01/17 11:09:26;;;;;;;1.77;1.67;;;;;;;-11.78;78.08;98167.78;5095349;28;20538;-77
2024/01/17 11:11:54;;;;;;;1.60;1.50;;;;;;;-11.74;78.43;98170.97;5080707;28;20051;-78
2024/01/17 11:14:22;;;;;;;1.80;1.70;;;;;;;-11.76;78.47;98166.84;5097513;28;20496;-77
2024/01/17 11:16:51;;;;;;;1.60;1.50;;;;;;;-11.90;77.82;98174.03;5115738;28;20048;-79
2024/01/17 11:19:20;;;;;;;1.58;1.48;;;;;;;-12.01;76.28;98195.69;5079988;28;20054;-79
2024/01/17 11:21:48;;;;;;;1.83;1.73;;;;;;;-12.10;76.04;98187.78;5097183;28;20109;-79
2024/01/17 11:24:24;;;;;;;1.80;1.70;;;;;;;-12.02;75.41;98211.44;5115293;28;20059;-79
2024/01/17 11:27:16;;;;;;;1.67;1.58;;;;;;;-12.07;74.62;98219.59;5115307;28;20138;-79
2024/01/17 11:29:51;;;;;;;1.90;1.80;;;;;;;-12.14;74.11;98220.22;5115153;28;20039;-79
2024/01/17 11:32:41;;;;;;;1.52;1.42;;;;;;;-12.16;74.41;98230.72;5115288;28;20060;-79
2024/01/17 11:35:08;;;;;;;1.58;1.48;;;;;;;-12.13;74.33;98224.44;5115558;28;20051;-79
2024/01/17 11:37:38;;;;;;;1.60;1.50;;;;;;;-12.01;74.22;98234.72;5115040;28;20043;-78
2024/01/17 11:40:07;;;;;;;1.92;1.83;;;;;;;-12.03;73.49;98231.41;5115080;28;20044;-79